METAR Data
IDs: Format: Raw Decoded Include TAF

Data at: 1601 UTC 18 Feb 2019

METAR for:KIFA (Iowa Falls Muni, IA, US)
Text:KIFA 181555Z AUTO 31007KT 10SM CLR M12/M15 A3041 RMK AO2 T11181146
Temperature:-11.8°C ( 11°F)
Dewpoint:-14.6°C ( 6°F) [RH = 80%]
Pressure (altimeter):30.41 inches Hg (1029.9 mb)
Winds:from the NW (310 degrees) at 8 MPH (7 knots; 3.6 m/s)
Visibility:10 or more sm (16+ km)
Ceiling:at least 12,000 feet AGL
Clouds:sky clear below 12,000 feet AGL
QC Flag:automated observation with no human augmentation